createdAt,value
2022-12-07T00:01:31.396Z,100.00
2022-12-07T00:04:04.924Z,100.00
2022-12-07T00:06:32.641Z,100.00
2022-12-07T00:08:59.121Z,100.00
2022-12-07T00:11:25.649Z,100.00
2022-12-07T00:13:53.005Z,100.00
2022-12-07T00:16:20.885Z,100.00
2022-12-07T00:18:47.728Z,100.00
2022-12-07T00:21:15.501Z,100.00
2022-12-07T00:23:42.693Z,100.00
2022-12-07T00:26:10.581Z,100.00
2022-12-07T00:28:37.182Z,100.00
2022-12-07T00:31:13.492Z,100.00
2022-12-07T00:33:40.070Z,100.00
2022-12-07T00:36:07.884Z,100.00
2022-12-07T00:38:35.467Z,100.00
2022-12-07T00:41:03.856Z,100.00
2022-12-07T00:43:30.720Z,100.00
2022-12-07T00:45:57.430Z,100.00
2022-12-07T00:48:24.237Z,100.00
2022-12-07T00:50:50.772Z,100.00
2022-12-07T00:53:17.461Z,100.00
2022-12-07T00:55:44.601Z,100.00
2022-12-07T00:58:11.435Z,100.00
2022-12-07T01:00:39.353Z,100.00
2022-12-07T01:03:06.731Z,100.00
2022-12-07T01:05:33.706Z,100.00
2022-12-07T01:08:00.391Z,100.00
2022-12-07T01:10:27.488Z,100.00
2022-12-07T01:12:54.061Z,100.00
2022-12-07T01:15:20.489Z,100.00
2022-12-07T01:17:47.024Z,100.00
2022-12-07T01:20:13.708Z,100.00
2022-12-07T01:22:41.440Z,100.00
2022-12-07T01:25:09.078Z,100.00
2022-12-07T01:27:35.968Z,100.00
2022-12-07T01:30:04.729Z,100.00
2022-12-07T01:32:31.473Z,100.00
2022-12-07T01:34:58.019Z,100.00
2022-12-07T01:37:24.502Z,100.00
2022-12-07T01:39:51.664Z,100.00
2022-12-07T01:42:18.585Z,100.00
2022-12-07T01:45:03.948Z,100.00
2022-12-07T01:47:30.395Z,100.00
2022-12-07T01:49:56.848Z,100.00
2022-12-07T01:52:28.973Z,100.00
2022-12-07T01:54:58.249Z,100.00
2022-12-07T01:57:25.133Z,100.00
2022-12-07T01:59:52.580Z,100.00
2022-12-07T02:02:20.818Z,100.00
2022-12-07T02:04:47.324Z,100.00
2022-12-07T02:07:14.061Z,100.00
2022-12-07T02:09:40.536Z,100.00
2022-12-07T02:12:07.187Z,100.00
2022-12-07T02:14:33.725Z,100.00
2022-12-07T02:17:06.722Z,100.00
2022-12-07T02:19:53.438Z,100.00
2022-12-07T02:22:38.644Z,100.00
2022-12-07T02:25:14.423Z,100.00
2022-12-07T02:27:46.415Z,100.00
2022-12-07T02:30:13.794Z,100.00
2022-12-07T02:32:47.382Z,100.00
2022-12-07T02:35:18.834Z,100.00
2022-12-07T02:37:57.715Z,100.00
2022-12-07T02:40:34.329Z,100.00
2022-12-07T02:43:08.122Z,100.00
2022-12-07T02:45:36.545Z,100.00
2022-12-07T02:48:03.392Z,100.00
2022-12-07T02:50:29.923Z,100.00
2022-12-07T02:52:56.372Z,100.00
2022-12-07T02:55:26.369Z,100.00
2022-12-07T02:58:07.193Z,100.00
2022-12-07T03:00:40.769Z,100.00
2022-12-07T03:03:14.930Z,100.00
2022-12-07T03:06:00.550Z,100.00
2022-12-07T03:08:46.023Z,100.00
2022-12-07T03:11:21.782Z,100.00
2022-12-07T03:13:48.554Z,100.00
2022-12-07T03:16:21.459Z,100.00
2022-12-07T03:18:51.041Z,100.00
2022-12-07T03:21:20.089Z,100.00
2022-12-07T03:23:49.380Z,100.00
2022-12-07T03:26:18.644Z,100.00
2022-12-07T03:28:48.916Z,100.00
2022-12-07T03:31:18.304Z,100.00
2022-12-07T03:34:05.125Z,100.00
2022-12-07T03:36:36.433Z,100.00
2022-12-07T03:39:15.772Z,100.00
2022-12-07T03:41:45.193Z,100.00
2022-12-07T03:44:12.590Z,100.00
2022-12-07T03:46:50.784Z,100.00
2022-12-07T03:49:23.073Z,100.00
2022-12-07T03:51:49.497Z,100.00
2022-12-07T03:54:35.378Z,100.00
2022-12-07T03:57:02.773Z,100.00
2022-12-07T03:59:29.667Z,100.00
2022-12-07T04:01:58.014Z,100.00
2022-12-07T04:04:25.456Z,100.00
2022-12-07T04:06:52.037Z,100.00
2022-12-07T04:09:18.843Z,100.00
2022-12-07T04:11:45.325Z,100.00
2022-12-07T04:14:21.006Z,100.00
2022-12-07T04:16:51.726Z,100.00
2022-12-07T04:19:19.265Z,100.00
2022-12-07T04:21:45.800Z,100.00
2022-12-07T04:24:13.296Z,100.00
2022-12-07T04:26:39.894Z,100.00
2022-12-07T04:29:07.889Z,100.00
2022-12-07T04:31:35.066Z,100.00
2022-12-07T04:34:01.711Z,100.00
2022-12-07T04:36:28.332Z,100.00
2022-12-07T04:38:55.742Z,100.00
2022-12-07T04:41:27.864Z,100.00
2022-12-07T04:43:56.244Z,100.00
2022-12-07T04:46:23.335Z,100.00
2022-12-07T04:48:50.249Z,100.00
2022-12-07T04:51:19.304Z,100.00
2022-12-07T04:53:45.746Z,100.00
2022-12-07T04:56:12.230Z,100.00
2022-12-07T04:58:38.639Z,100.00
2022-12-07T05:01:06.873Z,100.00
2022-12-07T05:03:33.378Z,100.00
2022-12-07T05:05:59.829Z,100.00
2022-12-07T05:08:26.365Z,100.00
2022-12-07T05:10:52.805Z,100.00
2022-12-07T05:13:19.213Z,100.00
2022-12-07T05:15:45.728Z,100.00
2022-12-07T05:18:13.484Z,100.00
2022-12-07T05:20:42.617Z,100.00
2022-12-07T05:23:09.477Z,100.00
2022-12-07T05:25:36.045Z,100.00
2022-12-07T05:28:02.657Z,100.00
2022-12-07T05:30:29.148Z,100.00
2022-12-07T05:32:55.646Z,100.00
2022-12-07T05:35:22.542Z,100.00
2022-12-07T05:37:48.976Z,100.00
2022-12-07T05:40:15.779Z,100.00
2022-12-07T05:42:42.310Z,100.00
2022-12-07T05:45:09.732Z,100.00
2022-12-07T05:47:36.218Z,100.00
2022-12-07T05:50:03.151Z,100.00
2022-12-07T05:52:29.700Z,100.00
2022-12-07T05:54:56.129Z,100.00
2022-12-07T05:57:22.584Z,100.00
2022-12-07T05:59:49.059Z,100.00
2022-12-07T06:02:16.552Z,100.00
2022-12-07T06:04:46.872Z,100.00
2022-12-07T06:07:14.355Z,100.00
2022-12-07T06:09:40.810Z,100.00
2022-12-07T06:12:26.367Z,100.00
2022-12-07T06:14:52.886Z,100.00
2022-12-07T06:17:19.585Z,100.00
2022-12-07T06:19:46.097Z,100.00
2022-12-07T06:22:12.913Z,100.00
2022-12-07T06:24:39.621Z,100.00
2022-12-07T06:27:06.212Z,100.00
2022-12-07T06:29:33.077Z,100.00
2022-12-07T06:31:59.628Z,100.00
2022-12-07T06:34:26.599Z,100.00
2022-12-07T06:36:54.659Z,100.00
2022-12-07T06:39:25.528Z,100.00
2022-12-07T06:41:55.271Z,100.00
2022-12-07T06:44:22.800Z,100.00
2022-12-07T06:46:49.776Z,100.00
2022-12-07T06:49:16.405Z,100.00
2022-12-07T06:51:43.010Z,100.00
2022-12-07T06:54:10.366Z,100.00
2022-12-07T06:56:36.830Z,100.00
2022-12-07T06:59:03.645Z,100.00
2022-12-07T07:01:30.337Z,100.00
2022-12-07T07:03:56.748Z,100.00
2022-12-07T07:06:23.196Z,100.00
2022-12-07T07:08:49.762Z,100.00
2022-12-07T07:11:16.369Z,100.00
2022-12-07T07:13:42.866Z,100.00
2022-12-07T07:16:09.291Z,100.00
2022-12-07T07:18:36.006Z,100.00
2022-12-07T07:21:02.694Z,100.00
2022-12-07T07:23:29.373Z,100.00
2022-12-07T07:25:55.844Z,100.00
2022-12-07T07:28:22.310Z,100.00
2022-12-07T07:30:48.999Z,100.00
2022-12-07T07:33:16.008Z,100.00
2022-12-07T07:35:42.509Z,100.00
2022-12-07T07:38:09.321Z,100.00
2022-12-07T07:40:36.473Z,100.00
2022-12-07T07:43:02.966Z,100.00
2022-12-07T07:45:29.500Z,100.00
2022-12-07T07:47:55.996Z,100.00
2022-12-07T07:50:22.807Z,100.00
2022-12-07T07:52:49.259Z,100.00
2022-12-07T07:55:16.357Z,100.00
2022-12-07T07:57:42.847Z,100.00
2022-12-07T08:00:11.229Z,100.00
2022-12-07T08:02:40.518Z,100.00
2022-12-07T08:05:07.478Z,100.00
2022-12-07T08:07:34.019Z,100.00
2022-12-07T08:10:01.126Z,100.00
2022-12-07T08:12:27.869Z,100.00
2022-12-07T08:14:54.298Z,100.00
2022-12-07T08:17:20.783Z,100.00
2022-12-07T08:19:47.250Z,100.00
2022-12-07T08:22:13.765Z,100.00
2022-12-07T08:24:40.301Z,100.00
2022-12-07T08:27:06.757Z,100.00
2022-12-07T08:29:33.334Z,100.00
2022-12-07T08:32:05.250Z,100.00
2022-12-07T08:34:34.632Z,100.00
2022-12-07T08:37:01.574Z,100.00
2022-12-07T08:39:32.346Z,100.00
2022-12-07T08:41:59.380Z,100.00
2022-12-07T08:44:25.873Z,100.00
2022-12-07T08:46:59.267Z,100.00
2022-12-07T08:49:31.686Z,100.00
2022-12-07T08:51:58.166Z,100.00
2022-12-07T08:54:24.768Z,100.00
2022-12-07T08:56:58.506Z,100.00
2022-12-07T08:59:26.678Z,100.00
2022-12-07T09:01:53.548Z,100.00
2022-12-07T09:04:21.503Z,100.00
2022-12-07T09:06:48.169Z,100.00
2022-12-07T09:09:15.256Z,100.00
2022-12-07T09:11:41.711Z,100.00
2022-12-07T09:14:08.153Z,100.00
2022-12-07T09:16:34.696Z,100.00
2022-12-07T09:19:01.159Z,100.00
2022-12-07T09:21:27.665Z,100.00
2022-12-07T09:23:54.185Z,100.00
2022-12-07T09:26:20.594Z,100.00
2022-12-07T09:28:47.097Z,100.00
2022-12-07T09:31:29.023Z,100.00
2022-12-07T09:33:59.909Z,100.00
2022-12-07T09:36:27.111Z,100.00
2022-12-07T09:38:53.516Z,100.00
2022-12-07T09:41:20.372Z,100.00
2022-12-07T09:43:47.928Z,100.00
2022-12-07T09:46:16.300Z,100.00
2022-12-07T09:48:43.998Z,100.00
2022-12-07T09:51:24.288Z,100.00
2022-12-07T09:53:52.388Z,100.00
2022-12-07T09:56:19.863Z,100.00
2022-12-07T09:58:46.764Z,100.00
2022-12-07T10:01:15.095Z,100.00
2022-12-07T10:03:46.116Z,100.00
2022-12-07T10:06:13.496Z,100.00
2022-12-07T10:08:42.219Z,100.00
2022-12-07T10:11:11.491Z,100.00
2022-12-07T10:13:43.564Z,100.00
2022-12-07T10:16:32.674Z,100.00
2022-12-07T10:19:18.060Z,100.00
2022-12-07T10:21:59.757Z,100.00
2022-12-07T10:24:26.194Z,99.48
2022-12-07T10:26:52.993Z,98.78
2022-12-07T10:29:20.153Z,100.00
2022-12-07T10:31:48.402Z,100.00
2022-12-07T10:34:39.505Z,100.00
2022-12-07T10:37:08.027Z,97.95
2022-12-07T10:39:41.848Z,95.02
2022-12-07T10:42:16.152Z,93.97
2022-12-07T10:44:44.255Z,95.67
2022-12-07T10:47:16.954Z,94.71
2022-12-07T10:50:01.991Z,93.70
2022-12-07T10:52:31.659Z,93.15
2022-12-07T10:55:16.933Z,90.94
2022-12-07T10:57:46.144Z,91.05
2022-12-07T11:00:18.415Z,90.62
2022-12-07T11:02:53.886Z,89.82
2022-12-07T11:05:23.407Z,89.47
2022-12-07T11:08:13.927Z,89.73
2022-12-07T11:10:46.641Z,86.17
2022-12-07T11:13:13.052Z,86.84
2022-12-07T11:15:58.249Z,83.30
2022-12-07T11:18:30.383Z,84.81
2022-12-07T11:21:06.010Z,80.35
2022-12-07T11:23:44.774Z,77.59
2022-12-07T11:26:14.011Z,76.94
2022-12-07T11:28:59.408Z,77.10
2022-12-07T11:31:45.593Z,80.36
2022-12-07T11:34:28.862Z,76.64
2022-12-07T11:36:55.926Z,78.58
2022-12-07T11:39:22.340Z,80.07
2022-12-07T11:41:51.245Z,79.85
2022-12-07T11:44:19.658Z,82.09
2022-12-07T11:46:48.107Z,81.29
2022-12-07T11:49:24.861Z,83.46
2022-12-07T11:51:54.048Z,85.35
2022-12-07T11:54:33.046Z,82.80
2022-12-07T11:57:04.616Z,81.81
2022-12-07T11:59:36.333Z,84.83
2022-12-07T12:02:11.710Z,84.64
2022-12-07T12:04:38.245Z,83.55
2022-12-07T12:10:01.398Z,83.00
2022-12-07T12:15:33.438Z,82.59
2022-12-07T12:18:10.916Z,80.47
2022-12-07T12:20:42.294Z,78.77
2022-12-07T12:23:15.768Z,80.54
2022-12-07T12:25:45.348Z,79.26
2022-12-07T12:28:21.204Z,77.88
2022-12-07T12:31:04.794Z,77.55
2022-12-07T12:33:32.646Z,80.09
2022-12-07T12:36:19.463Z,79.44
2022-12-07T12:39:04.806Z,80.30
2022-12-07T12:42:00.432Z,75.76
2022-12-07T12:44:29.634Z,74.49
2022-12-07T12:46:59.782Z,74.96
2022-12-07T12:49:26.262Z,75.17
2022-12-07T12:51:53.857Z,73.66
2022-12-07T12:54:23.166Z,72.11
2022-12-07T12:56:52.642Z,75.67
2022-12-07T12:59:19.033Z,74.74
2022-12-07T13:01:45.906Z,75.91
2022-12-07T13:04:32.807Z,78.20
2022-12-07T13:06:59.249Z,78.73
2022-12-07T13:09:28.199Z,80.70
2022-12-07T13:11:59.345Z,81.17
2022-12-07T13:14:44.318Z,82.06
2022-12-07T13:17:33.758Z,83.31
2022-12-07T13:20:05.029Z,84.35
2022-12-07T13:22:31.448Z,86.70
2022-12-07T13:25:20.641Z,87.61
2022-12-07T13:27:52.935Z,87.59
2022-12-07T13:30:21.184Z,86.73
2022-12-07T13:32:55.366Z,89.27
2022-12-07T13:35:34.304Z,91.36
2022-12-07T13:38:02.750Z,92.78
2022-12-07T13:40:29.173Z,92.97
2022-12-07T13:43:15.198Z,92.67
2022-12-07T13:45:51.558Z,91.28
2022-12-07T13:48:25.230Z,92.42
2022-12-07T13:50:55.962Z,92.79
2022-12-07T13:53:22.872Z,91.55
2022-12-07T13:55:54.060Z,92.47
2022-12-07T13:58:21.386Z,93.39
2022-12-07T14:00:47.972Z,93.43
2022-12-07T14:03:14.544Z,92.21
2022-12-07T14:05:42.669Z,94.13
2022-12-07T14:08:12.170Z,94.98
2022-12-07T14:10:38.573Z,95.77
2022-12-07T14:13:21.017Z,96.81
2022-12-07T14:15:50.585Z,96.58
2022-12-07T14:18:37.531Z,95.86
2022-12-07T14:21:04.953Z,93.71
2022-12-07T14:23:31.417Z,93.61
2022-12-07T14:26:27.218Z,94.88
2022-12-07T14:28:53.639Z,94.81
2022-12-07T14:31:30.260Z,95.46
2022-12-07T14:34:00.215Z,95.90
2022-12-07T14:36:26.644Z,96.53
2022-12-07T14:38:55.187Z,95.71
2022-12-07T14:41:41.878Z,94.80
2022-12-07T14:44:24.010Z,96.13
2022-12-07T14:49:38.499Z,98.76
2022-12-07T14:54:52.364Z,99.63
2022-12-07T14:57:18.948Z,100.00
2022-12-07T14:59:45.610Z,99.60
2022-12-07T15:02:13.749Z,100.00
2022-12-07T15:04:40.342Z,99.56
2022-12-07T15:07:10.230Z,99.97
2022-12-07T15:09:36.720Z,99.08
2022-12-07T15:12:04.625Z,99.92
2022-12-07T15:14:31.053Z,99.31
2022-12-07T15:17:19.253Z,98.94
2022-12-07T15:19:43.921Z,99.75
2022-12-07T15:22:11.857Z,100.00
2022-12-07T15:24:38.360Z,100.00
2022-12-07T15:27:04.818Z,100.00
2022-12-07T15:29:31.280Z,100.00
2022-12-07T15:31:58.437Z,100.00
2022-12-07T15:34:26.361Z,100.00
2022-12-07T15:36:52.910Z,100.00
2022-12-07T15:39:19.456Z,100.00
2022-12-07T15:41:45.905Z,99.18
2022-12-07T15:44:32.151Z,99.30
2022-12-07T15:46:58.774Z,100.00
2022-12-07T15:49:25.384Z,100.00
2022-12-07T15:51:51.827Z,100.00
2022-12-07T15:54:25.937Z,100.00
2022-12-07T15:56:52.454Z,100.00
2022-12-07T15:59:18.909Z,100.00
2022-12-07T16:01:45.520Z,100.00
2022-12-07T16:04:12.012Z,100.00
2022-12-07T16:06:38.860Z,100.00
2022-12-07T16:09:05.821Z,100.00
2022-12-07T16:11:32.535Z,100.00
2022-12-07T16:13:58.993Z,97.98
2022-12-07T16:16:26.009Z,98.66
2022-12-07T16:18:52.753Z,99.63
2022-12-07T16:21:24.913Z,100.00
2022-12-07T16:23:51.730Z,100.00
2022-12-07T16:26:19.753Z,100.00
2022-12-07T16:28:46.636Z,100.00
2022-12-07T16:31:14.770Z,100.00
2022-12-07T16:33:42.137Z,100.00
2022-12-07T16:36:09.932Z,100.00
2022-12-07T16:38:36.744Z,100.00
2022-12-07T16:41:03.730Z,100.00
2022-12-07T16:43:30.154Z,100.00
2022-12-07T16:45:56.596Z,100.00
2022-12-07T16:48:23.307Z,100.00
2022-12-07T16:50:51.567Z,100.00
2022-12-07T16:53:18.178Z,100.00
2022-12-07T16:55:45.753Z,100.00
2022-12-07T16:58:13.581Z,100.00
2022-12-07T17:00:40.759Z,100.00
2022-12-07T17:03:07.512Z,100.00
2022-12-07T17:05:34.218Z,100.00
2022-12-07T17:08:02.341Z,100.00
2022-12-07T17:10:28.893Z,100.00
2022-12-07T17:12:55.399Z,100.00
2022-12-07T17:15:22.059Z,100.00
2022-12-07T17:17:56.253Z,100.00
2022-12-07T17:20:23.433Z,100.00
2022-12-07T17:22:49.931Z,100.00
2022-12-07T17:25:17.192Z,100.00
2022-12-07T17:27:44.379Z,100.00
2022-12-07T17:30:11.107Z,100.00
2022-12-07T17:32:37.661Z,100.00
2022-12-07T17:35:04.922Z,100.00
2022-12-07T17:37:32.432Z,100.00
2022-12-07T17:39:59.179Z,100.00
2022-12-07T17:42:38.065Z,100.00
2022-12-07T17:45:05.247Z,100.00
2022-12-07T17:47:31.982Z,100.00
2022-12-07T17:50:01.887Z,100.00
2022-12-07T17:52:51.865Z,100.00
2022-12-07T17:55:18.442Z,100.00
2022-12-07T17:57:44.908Z,100.00
2022-12-07T18:00:12.088Z,100.00
2022-12-07T18:02:38.664Z,100.00
2022-12-07T18:05:05.685Z,100.00
2022-12-07T18:07:32.480Z,100.00
2022-12-07T18:09:59.144Z,100.00
2022-12-07T18:12:25.640Z,100.00
2022-12-07T18:14:54.005Z,100.00
2022-12-07T18:17:20.650Z,100.00
2022-12-07T18:19:47.152Z,100.00
2022-12-07T18:22:13.686Z,100.00
2022-12-07T18:24:40.231Z,100.00
2022-12-07T18:27:06.824Z,100.00
2022-12-07T18:29:33.313Z,100.00
2022-12-07T18:32:00.228Z,100.00
2022-12-07T18:34:28.598Z,100.00
2022-12-07T18:36:55.069Z,100.00
2022-12-07T18:39:21.933Z,100.00
2022-12-07T18:41:48.727Z,100.00
2022-12-07T18:44:16.885Z,100.00
2022-12-07T18:46:43.666Z,100.00
2022-12-07T18:49:13.557Z,100.00
2022-12-07T18:51:40.193Z,100.00
2022-12-07T18:54:07.580Z,100.00
2022-12-07T18:56:34.058Z,100.00
2022-12-07T18:59:19.933Z,100.00
2022-12-07T19:01:51.571Z,100.00
2022-12-07T19:04:18.840Z,100.00
2022-12-07T19:06:46.878Z,100.00
2022-12-07T19:09:14.853Z,100.00
2022-12-07T19:11:50.826Z,100.00
2022-12-07T19:14:18.289Z,100.00
2022-12-07T19:16:45.267Z,100.00
2022-12-07T19:19:11.811Z,100.00
2022-12-07T19:21:38.251Z,100.00
2022-12-07T19:24:05.476Z,100.00
2022-12-07T19:26:32.422Z,100.00
2022-12-07T19:28:59.066Z,100.00
2022-12-07T19:31:25.588Z,100.00
2022-12-07T19:33:52.132Z,100.00
2022-12-07T19:36:18.546Z,100.00
2022-12-07T19:38:45.020Z,100.00
2022-12-07T19:41:31.618Z,100.00
2022-12-07T19:43:58.685Z,100.00
2022-12-07T19:46:25.601Z,100.00
2022-12-07T19:48:52.057Z,100.00
2022-12-07T19:51:18.623Z,100.00
2022-12-07T19:53:45.117Z,100.00
2022-12-07T19:56:15.661Z,100.00
2022-12-07T19:58:42.254Z,100.00
2022-12-07T20:01:09.082Z,100.00
2022-12-07T20:03:35.544Z,100.00
2022-12-07T20:06:02.064Z,100.00
2022-12-07T20:08:28.528Z,100.00
2022-12-07T20:10:58.391Z,100.00
2022-12-07T20:13:33.826Z,100.00
2022-12-07T20:16:18.999Z,100.00
2022-12-07T20:18:46.485Z,100.00
2022-12-07T20:21:12.936Z,100.00
2022-12-07T20:23:39.810Z,100.00
2022-12-07T20:26:08.072Z,100.00
2022-12-07T20:28:34.581Z,100.00
2022-12-07T20:31:01.179Z,100.00
2022-12-07T20:33:27.816Z,100.00
2022-12-07T20:35:58.797Z,100.00
2022-12-07T20:38:26.151Z,100.00
2022-12-07T20:40:52.552Z,100.00
2022-12-07T20:43:18.973Z,100.00
2022-12-07T20:45:45.945Z,100.00
2022-12-07T20:48:12.462Z,100.00
2022-12-07T20:50:42.157Z,100.00
2022-12-07T20:53:09.799Z,100.00
2022-12-07T20:55:36.459Z,100.00
2022-12-07T20:58:02.989Z,100.00
2022-12-07T21:00:29.582Z,100.00
2022-12-07T21:02:57.245Z,100.00
2022-12-07T21:05:24.652Z,100.00
2022-12-07T21:07:51.387Z,100.00
2022-12-07T21:10:17.977Z,100.00
2022-12-07T21:12:44.446Z,100.00
2022-12-07T21:15:11.147Z,100.00
2022-12-07T21:17:37.637Z,100.00
2022-12-07T21:20:04.411Z,100.00
2022-12-07T21:22:30.881Z,100.00
2022-12-07T21:24:57.302Z,100.00
2022-12-07T21:27:23.812Z,100.00
2022-12-07T21:29:54.133Z,100.00
2022-12-07T21:32:21.036Z,100.00
2022-12-07T21:34:47.552Z,100.00
2022-12-07T21:37:14.044Z,100.00
2022-12-07T21:39:40.543Z,100.00
2022-12-07T21:42:07.068Z,100.00
2022-12-07T21:44:33.626Z,100.00
2022-12-07T21:47:00.414Z,100.00
2022-12-07T21:49:26.914Z,98.91
2022-12-07T21:51:53.383Z,100.00
2022-12-07T21:54:25.406Z,100.00
2022-12-07T21:56:52.412Z,100.00
2022-12-07T21:59:21.002Z,100.00
2022-12-07T22:01:48.467Z,100.00
2022-12-07T22:04:17.396Z,100.00
2022-12-07T22:06:43.921Z,100.00
2022-12-07T22:09:10.408Z,100.00
2022-12-07T22:11:36.854Z,100.00
2022-12-07T22:14:22.501Z,100.00
2022-12-07T22:16:49.272Z,100.00
2022-12-07T22:19:15.742Z,100.00
2022-12-07T22:21:42.258Z,100.00
2022-12-07T22:24:10.200Z,100.00
2022-12-07T22:26:36.764Z,100.00
2022-12-07T22:29:03.445Z,100.00
2022-12-07T22:31:29.978Z,97.08
2022-12-07T22:33:56.636Z,99.50
2022-12-07T22:36:23.076Z,100.00
2022-12-07T22:38:49.578Z,100.00
2022-12-07T22:41:27.367Z,100.00
2022-12-07T22:43:54.383Z,100.00
2022-12-07T22:46:21.175Z,100.00
2022-12-07T22:48:47.790Z,100.00
2022-12-07T22:51:24.821Z,100.00
2022-12-07T22:53:51.893Z,99.63
2022-12-07T22:56:18.853Z,99.86
2022-12-07T22:58:46.309Z,100.00
2022-12-07T23:01:13.675Z,100.00
2022-12-07T23:03:40.518Z,100.00
2022-12-07T23:06:09.135Z,100.00
2022-12-07T23:08:36.203Z,100.00
2022-12-07T23:11:03.118Z,100.00
2022-12-07T23:13:32.686Z,100.00
2022-12-07T23:16:00.195Z,100.00
2022-12-07T23:18:27.211Z,100.00
2022-12-07T23:20:57.391Z,100.00
2022-12-07T23:23:23.974Z,100.00
2022-12-07T23:25:50.441Z,100.00
2022-12-07T23:28:16.887Z,100.00
2022-12-07T23:30:43.310Z,100.00
2022-12-07T23:33:09.736Z,100.00
2022-12-07T23:35:36.230Z,99.47
2022-12-07T23:38:02.673Z,100.00
2022-12-07T23:40:29.116Z,100.00
2022-12-07T23:42:55.600Z,100.00
2022-12-07T23:45:22.104Z,100.00
2022-12-07T23:47:49.090Z,100.00
2022-12-07T23:50:15.602Z,100.00
2022-12-07T23:52:42.024Z,100.00
2022-12-07T23:55:08.800Z,100.00
2022-12-07T23:57:35.273Z,100.00
